sensor_id;sensor_type;location;lat;lon;timestamp;P1;durP1;ratioP1;P2;durP2;ratioP2
20792;SDS011;10556;-33.662;151.094;2023-07-13T00:01:00;0.73;;;0.33;;
20792;SDS011;10556;-33.662;151.094;2023-07-13T00:06:03;0.27;;;0.20;;
20792;SDS011;10556;-33.662;151.094;2023-07-13T00:11:04;0.63;;;0.40;;
20792;SDS011;10556;-33.662;151.094;2023-07-13T00:16:06;0.57;;;0.33;;
20792;SDS011;10556;-33.662;151.094;2023-07-13T00:21:09;0.20;;;0.20;;
20792;SDS011;10556;-33.662;151.094;2023-07-13T00:26:11;0.53;;;0.40;;
20792;SDS011;10556;-33.662;151.094;2023-07-13T00:31:12;1.13;;;0.40;;
20792;SDS011;10556;-33.662;151.094;2023-07-13T00:36:16;0.50;;;0.40;;
20792;SDS011;10556;-33.662;151.094;2023-07-13T00:41:17;0.57;;;0.30;;
20792;SDS011;10556;-33.662;151.094;2023-07-13T00:46:23;1.10;;;0.40;;
20792;SDS011;10556;-33.662;151.094;2023-07-13T00:51:28;0.63;;;0.37;;
20792;SDS011;10556;-33.662;151.094;2023-07-13T00:56:31;0.70;;;0.47;;
20792;SDS011;10556;-33.662;151.094;2023-07-13T01:01:32;0.67;;;0.40;;
20792;SDS011;10556;-33.662;151.094;2023-07-13T01:06:35;0.40;;;0.30;;
20792;SDS011;10556;-33.662;151.094;2023-07-13T01:11:37;1.13;;;0.60;;
20792;SDS011;10556;-33.662;151.094;2023-07-13T01:16:38;1.57;;;0.70;;
20792;SDS011;10556;-33.662;151.094;2023-07-13T01:21:41;1.90;;;0.70;;
20792;SDS011;10556;-33.662;151.094;2023-07-13T01:26:43;2.13;;;0.60;;
20792;SDS011;10556;-33.662;151.094;2023-07-13T01:31:44;0.50;;;0.50;;
20792;SDS011;10556;-33.662;151.094;2023-07-13T01:36:47;1.10;;;0.50;;
20792;SDS011;10556;-33.662;151.094;2023-07-13T01:41:48;0.70;;;0.50;;
20792;SDS011;10556;-33.662;151.094;2023-07-13T01:46:49;1.37;;;0.67;;
20792;SDS011;10556;-33.662;151.094;2023-07-13T01:51:52;0.70;;;0.50;;
20792;SDS011;10556;-33.662;151.094;2023-07-13T01:56:54;0.50;;;0.50;;
20792;SDS011;10556;-33.662;151.094;2023-07-13T02:01:55;0.70;;;0.67;;
20792;SDS011;10556;-33.662;151.094;2023-07-13T02:06:58;0.83;;;0.63;;
20792;SDS011;10556;-33.662;151.094;2023-07-13T02:11:59;1.53;;;0.67;;
20792;SDS011;10556;-33.662;151.094;2023-07-13T02:17:00;0.93;;;0.60;;
20792;SDS011;10556;-33.662;151.094;2023-07-13T02:22:04;0.70;;;0.40;;
20792;SDS011;10556;-33.662;151.094;2023-07-13T02:27:05;0.50;;;0.40;;
20792;SDS011;10556;-33.662;151.094;2023-07-13T02:32:07;0.50;;;0.40;;
20792;SDS011;10556;-33.662;151.094;2023-07-13T02:37:10;0.70;;;0.50;;
20792;SDS011;10556;-33.662;151.094;2023-07-13T02:42:11;1.00;;;0.47;;
20792;SDS011;10556;-33.662;151.094;2023-07-13T02:47:12;0.40;;;0.40;;
20792;SDS011;10556;-33.662;151.094;2023-07-13T02:52:16;0.80;;;0.50;;
20792;SDS011;10556;-33.662;151.094;2023-07-13T02:57:17;0.70;;;0.40;;
20792;SDS011;10556;-33.662;151.094;2023-07-13T03:02:18;1.80;;;0.50;;
20792;SDS011;10556;-33.662;151.094;2023-07-13T03:07:21;0.60;;;0.50;;
20792;SDS011;10556;-33.662;151.094;2023-07-13T03:12:22;0.50;;;0.50;;
20792;SDS011;10556;-33.662;151.094;2023-07-13T03:17:24;1.37;;;0.60;;
20792;SDS011;10556;-33.662;151.094;2023-07-13T03:22:27;0.77;;;0.50;;
20792;SDS011;10556;-33.662;151.094;2023-07-13T03:27:28;1.50;;;0.63;;
20792;SDS011;10556;-33.662;151.094;2023-07-13T03:32:29;2.60;;;0.60;;
20792;SDS011;10556;-33.662;151.094;2023-07-13T03:37:32;2.17;;;0.50;;
20792;SDS011;10556;-33.662;151.094;2023-07-13T03:42:34;1.10;;;0.70;;
20792;SDS011;10556;-33.662;151.094;2023-07-13T03:47:35;1.00;;;0.50;;
20792;SDS011;10556;-33.662;151.094;2023-07-13T03:52:38;0.87;;;0.60;;
20792;SDS011;10556;-33.662;151.094;2023-07-13T03:57:39;0.50;;;0.40;;
20792;SDS011;10556;-33.662;151.094;2023-07-13T04:02:41;1.97;;;0.60;;
20792;SDS011;10556;-33.662;151.094;2023-07-13T04:07:44;0.73;;;0.60;;
20792;SDS011;10556;-33.662;151.094;2023-07-13T04:12:45;1.17;;;0.57;;
20792;SDS011;10556;-33.662;151.094;2023-07-13T04:17:46;0.93;;;0.50;;
20792;SDS011;10556;-33.662;151.094;2023-07-13T04:22:49;0.60;;;0.50;;
20792;SDS011;10556;-33.662;151.094;2023-07-13T04:27:51;0.90;;;0.50;;
20792;SDS011;10556;-33.662;151.094;2023-07-13T04:32:52;1.10;;;0.57;;
20792;SDS011;10556;-33.662;151.094;2023-07-13T04:37:55;1.10;;;0.73;;
20792;SDS011;10556;-33.662;151.094;2023-07-13T04:42:56;1.03;;;0.70;;
20792;SDS011;10556;-33.662;151.094;2023-07-13T04:47:57;1.60;;;0.83;;
20792;SDS011;10556;-33.662;151.094;2023-07-13T04:53:01;0.63;;;0.50;;
20792;SDS011;10556;-33.662;151.094;2023-07-13T04:58:02;1.23;;;0.60;;
20792;SDS011;10556;-33.662;151.094;2023-07-13T05:03:03;0.60;;;0.30;;
20792;SDS011;10556;-33.662;151.094;2023-07-13T05:08:06;1.97;;;0.80;;
20792;SDS011;10556;-33.662;151.094;2023-07-13T05:13:07;1.20;;;1.03;;
20792;SDS011;10556;-33.662;151.094;2023-07-13T05:18:09;0.67;;;0.50;;
20792;SDS011;10556;-33.662;151.094;2023-07-13T05:23:12;0.87;;;0.40;;
20792;SDS011;10556;-33.662;151.094;2023-07-13T05:28:13;0.93;;;0.40;;
20792;SDS011;10556;-33.662;151.094;2023-07-13T05:33:14;0.30;;;0.30;;
20792;SDS011;10556;-33.662;151.094;2023-07-13T05:38:17;0.20;;;0.20;;
20792;SDS011;10556;-33.662;151.094;2023-07-13T05:43:19;0.30;;;0.20;;
20792;SDS011;10556;-33.662;151.094;2023-07-13T05:48:20;0.80;;;0.40;;
20792;SDS011;10556;-33.662;151.094;2023-07-13T05:53:23;0.60;;;0.40;;
20792;SDS011;10556;-33.662;151.094;2023-07-13T05:58:24;0.23;;;0.20;;
20792;SDS011;10556;-33.662;151.094;2023-07-13T06:03:26;0.40;;;0.30;;
20792;SDS011;10556;-33.662;151.094;2023-07-13T06:08:29;0.20;;;0.20;;
20792;SDS011;10556;-33.662;151.094;2023-07-13T06:13:30;0.60;;;0.47;;
20792;SDS011;10556;-33.662;151.094;2023-07-13T06:18:32;0.40;;;0.30;;
20792;SDS011;10556;-33.662;151.094;2023-07-13T06:23:35;0.27;;;0.20;;
20792;SDS011;10556;-33.662;151.094;2023-07-13T06:28:36;0.50;;;0.30;;
20792;SDS011;10556;-33.662;151.094;2023-07-13T06:33:38;0.40;;;0.30;;
20792;SDS011;10556;-33.662;151.094;2023-07-13T06:38:41;0.40;;;0.30;;
20792;SDS011;10556;-33.662;151.094;2023-07-13T06:43:42;0.30;;;0.30;;
20792;SDS011;10556;-33.662;151.094;2023-07-13T06:48:44;0.30;;;0.30;;
20792;SDS011;10556;-33.662;151.094;2023-07-13T06:53:47;0.87;;;0.70;;
20792;SDS011;10556;-33.662;151.094;2023-07-13T06:58:48;1.40;;;1.07;;
20792;SDS011;10556;-33.662;151.094;2023-07-13T07:03:49;1.17;;;0.90;;
20792;SDS011;10556;-33.662;151.094;2023-07-13T07:08:52;0.60;;;0.60;;
20792;SDS011;10556;-33.662;151.094;2023-07-13T07:13:54;1.90;;;0.40;;
20792;SDS011;10556;-33.662;151.094;2023-07-13T07:18:58;0.80;;;0.60;;
20792;SDS011;10556;-33.662;151.094;2023-07-13T07:24:01;0.33;;;0.33;;
20792;SDS011;10556;-33.662;151.094;2023-07-13T07:29:02;0.83;;;0.40;;
20792;SDS011;10556;-33.662;151.094;2023-07-13T07:34:03;0.63;;;0.60;;
20792;SDS011;10556;-33.662;151.094;2023-07-13T07:39:06;2.00;;;0.93;;
20792;SDS011;10556;-33.662;151.094;2023-07-13T07:44:08;1.83;;;1.00;;
20792;SDS011;10556;-33.662;151.094;2023-07-13T07:49:09;1.30;;;0.77;;
20792;SDS011;10556;-33.662;151.094;2023-07-13T07:54:12;0.70;;;0.60;;
20792;SDS011;10556;-33.662;151.094;2023-07-13T07:59:13;31.70;;;21.37;;
20792;SDS011;10556;-33.662;151.094;2023-07-13T08:04:14;39.00;;;27.50;;
20792;SDS011;10556;-33.662;151.094;2023-07-13T08:09:18;15.80;;;12.50;;
20792;SDS011;10556;-33.662;151.094;2023-07-13T08:14:19;6.37;;;4.93;;
20792;SDS011;10556;-33.662;151.094;2023-07-13T08:19:20;2.50;;;1.53;;
20792;SDS011;10556;-33.662;151.094;2023-07-13T08:24:24;1.40;;;1.30;;
20792;SDS011;10556;-33.662;151.094;2023-07-13T08:29:25;2.43;;;1.77;;
20792;SDS011;10556;-33.662;151.094;2023-07-13T08:34:26;3.63;;;2.07;;
20792;SDS011;10556;-33.662;151.094;2023-07-13T08:39:29;4.33;;;2.50;;
20792;SDS011;10556;-33.662;151.094;2023-07-13T08:44:33;2.73;;;1.43;;
20792;SDS011;10556;-33.662;151.094;2023-07-13T08:49:38;2.50;;;1.60;;
20792;SDS011;10556;-33.662;151.094;2023-07-13T08:54:44;16.17;;;11.00;;
20792;SDS011;10556;-33.662;151.094;2023-07-13T08:59:46;16.40;;;11.00;;
20792;SDS011;10556;-33.662;151.094;2023-07-13T09:04:49;20.00;;;12.73;;
20792;SDS011;10556;-33.662;151.094;2023-07-13T09:09:55;19.97;;;10.97;;
20792;SDS011;10556;-33.662;151.094;2023-07-13T09:15:00;6.63;;;4.33;;
20792;SDS011;10556;-33.662;151.094;2023-07-13T09:20:03;3.53;;;2.67;;
20792;SDS011;10556;-33.662;151.094;2023-07-13T09:25:12;2.30;;;1.60;;
20792;SDS011;10556;-33.662;151.094;2023-07-13T09:30:23;2.20;;;1.90;;
20792;SDS011;10556;-33.662;151.094;2023-07-13T09:35:25;2.90;;;1.90;;
20792;SDS011;10556;-33.662;151.094;2023-07-13T09:40:39;2.07;;;1.50;;
20792;SDS011;10556;-33.662;151.094;2023-07-13T09:45:41;2.20;;;1.80;;
20792;SDS011;10556;-33.662;151.094;2023-07-13T09:50:46;1.70;;;1.57;;
20792;SDS011;10556;-33.662;151.094;2023-07-13T09:55:49;1.33;;;1.23;;
20792;SDS011;10556;-33.662;151.094;2023-07-13T10:00:57;2.17;;;1.07;;
20792;SDS011;10556;-33.662;151.094;2023-07-13T10:06:01;7.03;;;4.97;;
20792;SDS011;10556;-33.662;151.094;2023-07-13T10:11:12;12.50;;;9.50;;
20792;SDS011;10556;-33.662;151.094;2023-07-13T10:16:13;12.40;;;8.87;;
20792;SDS011;10556;-33.662;151.094;2023-07-13T10:21:16;6.37;;;4.87;;
20792;SDS011;10556;-33.662;151.094;2023-07-13T10:26:21;2.60;;;2.23;;
20792;SDS011;10556;-33.662;151.094;2023-07-13T10:31:24;2.13;;;1.50;;
20792;SDS011;10556;-33.662;151.094;2023-07-13T10:36:30;2.67;;;1.40;;
20792;SDS011;10556;-33.662;151.094;2023-07-13T10:41:34;1.90;;;1.70;;
20792;SDS011;10556;-33.662;151.094;2023-07-13T10:46:37;5.23;;;2.70;;
20792;SDS011;10556;-33.662;151.094;2023-07-13T10:51:39;5.33;;;2.87;;
20792;SDS011;10556;-33.662;151.094;2023-07-13T10:56:43;21.53;;;13.63;;
20792;SDS011;10556;-33.662;151.094;2023-07-13T11:01:50;15.23;;;9.40;;
20792;SDS011;10556;-33.662;151.094;2023-07-13T11:06:53;6.37;;;4.70;;
20792;SDS011;10556;-33.662;151.094;2023-07-13T11:11:58;13.10;;;8.87;;
20792;SDS011;10556;-33.662;151.094;2023-07-13T11:17:00;25.10;;;15.43;;
20792;SDS011;10556;-33.662;151.094;2023-07-13T11:22:22;26.33;;;15.87;;
20792;SDS011;10556;-33.662;151.094;2023-07-13T11:27:31;15.40;;;10.70;;
20792;SDS011;10556;-33.662;151.094;2023-07-13T11:32:34;12.37;;;8.73;;
20792;SDS011;10556;-33.662;151.094;2023-07-13T11:37:36;10.37;;;7.47;;
20792;SDS011;10556;-33.662;151.094;2023-07-13T11:42:40;6.07;;;4.17;;
20792;SDS011;10556;-33.662;151.094;2023-07-13T11:47:42;2.03;;;1.60;;
20792;SDS011;10556;-33.662;151.094;2023-07-13T11:52:43;1.50;;;1.20;;
20792;SDS011;10556;-33.662;151.094;2023-07-13T11:57:47;1.10;;;1.00;;
20792;SDS011;10556;-33.662;151.094;2023-07-13T12:02:50;1.13;;;0.90;;
20792;SDS011;10556;-33.662;151.094;2023-07-13T12:07:52;1.43;;;0.97;;
20792;SDS011;10556;-33.662;151.094;2023-07-13T12:12:55;1.27;;;0.70;;
20792;SDS011;10556;-33.662;151.094;2023-07-13T12:17:57;2.73;;;0.70;;
20792;SDS011;10556;-33.662;151.094;2023-07-13T12:22:58;1.20;;;0.87;;
20792;SDS011;10556;-33.662;151.094;2023-07-13T12:28:01;1.60;;;0.70;;
20792;SDS011;10556;-33.662;151.094;2023-07-13T12:33:21;1.40;;;0.90;;
20792;SDS011;10556;-33.662;151.094;2023-07-13T12:38:25;1.40;;;0.77;;
20792;SDS011;10556;-33.662;151.094;2023-07-13T12:43:28;3.60;;;1.43;;
20792;SDS011;10556;-33.662;151.094;2023-07-13T12:48:38;3.53;;;1.60;;
20792;SDS011;10556;-33.662;151.094;2023-07-13T12:53:40;2.90;;;1.47;;
20792;SDS011;10556;-33.662;151.094;2023-07-13T12:58:44;3.73;;;1.40;;
20792;SDS011;10556;-33.662;151.094;2023-07-13T13:03:46;1.07;;;0.67;;
20792;SDS011;10556;-33.662;151.094;2023-07-13T13:08:49;2.10;;;1.13;;
20792;SDS011;10556;-33.662;151.094;2023-07-13T13:13:52;2.00;;;1.27;;
20792;SDS011;10556;-33.662;151.094;2023-07-13T13:18:54;2.77;;;1.70;;
20792;SDS011;10556;-33.662;151.094;2023-07-13T13:23:56;2.90;;;1.33;;
20792;SDS011;10556;-33.662;151.094;2023-07-13T13:28:59;4.00;;;2.23;;
20792;SDS011;10556;-33.662;151.094;2023-07-13T13:34:00;4.60;;;2.00;;
20792;SDS011;10556;-33.662;151.094;2023-07-13T13:39:02;5.57;;;2.63;;
20792;SDS011;10556;-33.662;151.094;2023-07-13T13:44:08;3.17;;;1.40;;
20792;SDS011;10556;-33.662;151.094;2023-07-13T13:49:11;2.13;;;1.33;;
20792;SDS011;10556;-33.662;151.094;2023-07-13T13:54:13;2.73;;;1.10;;
20792;SDS011;10556;-33.662;151.094;2023-07-13T13:59:17;2.30;;;0.83;;
20792;SDS011;10556;-33.662;151.094;2023-07-13T14:04:18;1.03;;;0.70;;
20792;SDS011;10556;-33.662;151.094;2023-07-13T14:09:20;1.67;;;0.80;;
20792;SDS011;10556;-33.662;151.094;2023-07-13T14:14:23;1.27;;;0.80;;
20792;SDS011;10556;-33.662;151.094;2023-07-13T14:19:25;1.47;;;0.63;;
20792;SDS011;10556;-33.662;151.094;2023-07-13T14:24:26;1.93;;;0.60;;
20792;SDS011;10556;-33.662;151.094;2023-07-13T14:29:29;1.07;;;0.50;;
20792;SDS011;10556;-33.662;151.094;2023-07-13T14:34:31;1.93;;;0.50;;
20792;SDS011;10556;-33.662;151.094;2023-07-13T14:39:32;0.50;;;0.50;;
20792;SDS011;10556;-33.662;151.094;2023-07-13T14:44:35;2.30;;;0.80;;
20792;SDS011;10556;-33.662;151.094;2023-07-13T14:49:37;1.23;;;0.63;;
20792;SDS011;10556;-33.662;151.094;2023-07-13T14:54:38;1.67;;;0.80;;
20792;SDS011;10556;-33.662;151.094;2023-07-13T14:59:42;1.83;;;0.60;;
20792;SDS011;10556;-33.662;151.094;2023-07-13T15:04:43;1.00;;;0.43;;
20792;SDS011;10556;-33.662;151.094;2023-07-13T15:09:44;2.73;;;0.70;;
20792;SDS011;10556;-33.662;151.094;2023-07-13T15:14:47;1.13;;;0.50;;
20792;SDS011;10556;-33.662;151.094;2023-07-13T15:19:49;1.70;;;0.90;;
20792;SDS011;10556;-33.662;151.094;2023-07-13T15:24:50;2.07;;;0.83;;
20792;SDS011;10556;-33.662;151.094;2023-07-13T15:29:53;3.13;;;0.70;;
20792;SDS011;10556;-33.662;151.094;2023-07-13T15:34:54;2.23;;;0.87;;
20792;SDS011;10556;-33.662;151.094;2023-07-13T15:39:56;1.67;;;0.60;;
20792;SDS011;10556;-33.662;151.094;2023-07-13T15:44:59;0.83;;;0.70;;
20792;SDS011;10556;-33.662;151.094;2023-07-13T15:50:00;0.73;;;0.50;;
20792;SDS011;10556;-33.662;151.094;2023-07-13T15:55:01;0.87;;;0.40;;
20792;SDS011;10556;-33.662;151.094;2023-07-13T16:00:05;0.87;;;0.30;;
20792;SDS011;10556;-33.662;151.094;2023-07-13T16:05:13;0.70;;;0.43;;
20792;SDS011;10556;-33.662;151.094;2023-07-13T16:10:15;0.73;;;0.50;;
20792;SDS011;10556;-33.662;151.094;2023-07-13T16:15:20;1.70;;;0.60;;
20792;SDS011;10556;-33.662;151.094;2023-07-13T16:20:21;1.17;;;0.47;;
20792;SDS011;10556;-33.662;151.094;2023-07-13T16:25:23;1.20;;;0.50;;
20792;SDS011;10556;-33.662;151.094;2023-07-13T16:30:27;1.13;;;0.53;;
20792;SDS011;10556;-33.662;151.094;2023-07-13T16:35:29;0.90;;;0.40;;
20792;SDS011;10556;-33.662;151.094;2023-07-13T16:40:32;1.90;;;0.40;;
20792;SDS011;10556;-33.662;151.094;2023-07-13T16:45:35;0.70;;;0.37;;
20792;SDS011;10556;-33.662;151.094;2023-07-13T16:50:37;0.90;;;0.40;;
20792;SDS011;10556;-33.662;151.094;2023-07-13T16:55:39;2.03;;;0.33;;
20792;SDS011;10556;-33.662;151.094;2023-07-13T17:00:42;1.03;;;0.40;;
20792;SDS011;10556;-33.662;151.094;2023-07-13T17:05:43;0.83;;;0.40;;
20792;SDS011;10556;-33.662;151.094;2023-07-13T17:10:45;0.30;;;0.30;;
20792;SDS011;10556;-33.662;151.094;2023-07-13T17:15:48;0.47;;;0.30;;
20792;SDS011;10556;-33.662;151.094;2023-07-13T17:20:50;0.67;;;0.37;;
20792;SDS011;10556;-33.662;151.094;2023-07-13T17:25:52;1.53;;;0.50;;
20792;SDS011;10556;-33.662;151.094;2023-07-13T17:30:55;0.40;;;0.40;;
20792;SDS011;10556;-33.662;151.094;2023-07-13T17:35:57;1.13;;;0.40;;
20792;SDS011;10556;-33.662;151.094;2023-07-13T17:40:59;0.83;;;0.60;;
20792;SDS011;10556;-33.662;151.094;2023-07-13T17:46:04;1.70;;;0.50;;
20792;SDS011;10556;-33.662;151.094;2023-07-13T17:51:08;1.00;;;0.40;;
20792;SDS011;10556;-33.662;151.094;2023-07-13T17:56:09;1.13;;;0.40;;
20792;SDS011;10556;-33.662;151.094;2023-07-13T18:01:13;0.47;;;0.37;;
20792;SDS011;10556;-33.662;151.094;2023-07-13T18:06:15;2.10;;;0.40;;
20792;SDS011;10556;-33.662;151.094;2023-07-13T18:11:17;0.43;;;0.30;;
20792;SDS011;10556;-33.662;151.094;2023-07-13T18:16:20;0.43;;;0.33;;
20792;SDS011;10556;-33.662;151.094;2023-07-13T18:21:22;0.53;;;0.30;;
20792;SDS011;10556;-33.662;151.094;2023-07-13T18:26:24;0.63;;;0.30;;
20792;SDS011;10556;-33.662;151.094;2023-07-13T18:31:30;0.67;;;0.40;;
20792;SDS011;10556;-33.662;151.094;2023-07-13T18:36:33;1.23;;;0.60;;
20792;SDS011;10556;-33.662;151.094;2023-07-13T18:41:34;0.70;;;0.40;;
20792;SDS011;10556;-33.662;151.094;2023-07-13T18:46:38;1.17;;;0.50;;
20792;SDS011;10556;-33.662;151.094;2023-07-13T18:51:39;0.60;;;0.50;;
20792;SDS011;10556;-33.662;151.094;2023-07-13T18:56:40;0.70;;;0.30;;
20792;SDS011;10556;-33.662;151.094;2023-07-13T19:01:43;0.43;;;0.30;;
20792;SDS011;10556;-33.662;151.094;2023-07-13T19:06:45;0.37;;;0.30;;
20792;SDS011;10556;-33.662;151.094;2023-07-13T19:11:46;0.40;;;0.30;;
20792;SDS011;10556;-33.662;151.094;2023-07-13T19:16:49;1.33;;;0.50;;
20792;SDS011;10556;-33.662;151.094;2023-07-13T19:21:50;1.07;;;0.30;;
20792;SDS011;10556;-33.662;151.094;2023-07-13T19:26:53;1.43;;;0.60;;
20792;SDS011;10556;-33.662;151.094;2023-07-13T19:31:56;0.90;;;0.40;;
20792;SDS011;10556;-33.662;151.094;2023-07-13T19:36:58;0.50;;;0.40;;
20792;SDS011;10556;-33.662;151.094;2023-07-13T19:42:01;1.43;;;0.40;;
20792;SDS011;10556;-33.662;151.094;2023-07-13T19:47:07;1.67;;;0.37;;
20792;SDS011;10556;-33.662;151.094;2023-07-13T19:52:10;0.30;;;0.23;;
20792;SDS011;10556;-33.662;151.094;2023-07-13T19:57:13;0.87;;;0.33;;
20792;SDS011;10556;-33.662;151.094;2023-07-13T20:02:16;1.43;;;0.50;;
20792;SDS011;10556;-33.662;151.094;2023-07-13T20:07:18;0.67;;;0.30;;
20792;SDS011;10556;-33.662;151.094;2023-07-13T20:12:20;0.43;;;0.30;;
20792;SDS011;10556;-33.662;151.094;2023-07-13T20:17:30;0.40;;;0.40;;
20792;SDS011;10556;-33.662;151.094;2023-07-13T20:22:31;2.93;;;0.60;;
20792;SDS011;10556;-33.662;151.094;2023-07-13T20:27:32;0.63;;;0.43;;
20792;SDS011;10556;-33.662;151.094;2023-07-13T20:32:36;1.27;;;0.40;;
20792;SDS011;10556;-33.662;151.094;2023-07-13T20:37:38;0.87;;;0.50;;
20792;SDS011;10556;-33.662;151.094;2023-07-13T20:42:39;0.63;;;0.40;;
20792;SDS011;10556;-33.662;151.094;2023-07-13T20:47:42;0.90;;;0.40;;
20792;SDS011;10556;-33.662;151.094;2023-07-13T20:52:44;1.50;;;0.50;;
20792;SDS011;10556;-33.662;151.094;2023-07-13T20:57:45;1.33;;;0.40;;
20792;SDS011;10556;-33.662;151.094;2023-07-13T21:02:49;1.13;;;0.40;;
20792;SDS011;10556;-33.662;151.094;2023-07-13T21:07:51;2.63;;;0.40;;
20792;SDS011;10556;-33.662;151.094;2023-07-13T21:12:53;0.87;;;0.40;;
20792;SDS011;10556;-33.662;151.094;2023-07-13T21:17:57;1.03;;;0.60;;
20792;SDS011;10556;-33.662;151.094;2023-07-13T21:22:59;1.07;;;0.50;;
20792;SDS011;10556;-33.662;151.094;2023-07-13T21:28:00;1.33;;;0.50;;
20792;SDS011;10556;-33.662;151.094;2023-07-13T21:33:03;1.50;;;0.60;;
20792;SDS011;10556;-33.662;151.094;2023-07-13T21:38:08;1.50;;;0.63;;
20792;SDS011;10556;-33.662;151.094;2023-07-13T21:43:14;0.70;;;0.33;;
20792;SDS011;10556;-33.662;151.094;2023-07-13T21:48:17;1.60;;;0.50;;
20792;SDS011;10556;-33.662;151.094;2023-07-13T21:53:19;8.77;;;3.20;;
20792;SDS011;10556;-33.662;151.094;2023-07-13T21:58:22;3.13;;;1.67;;
20792;SDS011;10556;-33.662;151.094;2023-07-13T22:03:26;2.10;;;1.23;;
20792;SDS011;10556;-33.662;151.094;2023-07-13T22:08:28;1.87;;;0.80;;
20792;SDS011;10556;-33.662;151.094;2023-07-13T22:13:30;1.70;;;0.63;;
20792;SDS011;10556;-33.662;151.094;2023-07-13T22:18:33;1.30;;;0.50;;
20792;SDS011;10556;-33.662;151.094;2023-07-13T22:23:34;0.63;;;0.40;;
20792;SDS011;10556;-33.662;151.094;2023-07-13T22:28:35;1.23;;;0.30;;
20792;SDS011;10556;-33.662;151.094;2023-07-13T22:33:39;0.60;;;0.40;;
20792;SDS011;10556;-33.662;151.094;2023-07-13T22:38:40;1.87;;;0.60;;
20792;SDS011;10556;-33.662;151.094;2023-07-13T22:43:41;1.63;;;0.30;;
20792;SDS011;10556;-33.662;151.094;2023-07-13T22:48:53;1.07;;;0.57;;
20792;SDS011;10556;-33.662;151.094;2023-07-13T22:53:54;3.00;;;0.43;;
20792;SDS011;10556;-33.662;151.094;2023-07-13T22:58:56;0.63;;;0.40;;
20792;SDS011;10556;-33.662;151.094;2023-07-13T23:03:59;2.77;;;0.50;;
20792;SDS011;10556;-33.662;151.094;2023-07-13T23:09:01;1.07;;;0.40;;
20792;SDS011;10556;-33.662;151.094;2023-07-13T23:14:02;1.10;;;0.60;;
20792;SDS011;10556;-33.662;151.094;2023-07-13T23:19:07;0.90;;;0.47;;
20792;SDS011;10556;-33.662;151.094;2023-07-13T23:24:11;1.83;;;0.43;;
20792;SDS011;10556;-33.662;151.094;2023-07-13T23:29:13;0.40;;;0.37;;
20792;SDS011;10556;-33.662;151.094;2023-07-13T23:34:17;1.37;;;0.57;;
20792;SDS011;10556;-33.662;151.094;2023-07-13T23:39:18;0.90;;;0.50;;
20792;SDS011;10556;-33.662;151.094;2023-07-13T23:44:20;1.00;;;0.60;;
20792;SDS011;10556;-33.662;151.094;2023-07-13T23:49:24;1.70;;;0.40;;
20792;SDS011;10556;-33.662;151.094;2023-07-13T23:54:26;1.73;;;0.70;;
20792;SDS011;10556;-33.662;151.094;2023-07-13T23:59:28;1.47;;;0.40;;
